createdAt,value
2022-08-28T00:01:46.972Z,17.10
2022-08-28T00:04:15.228Z,17.00
2022-08-28T00:06:44.656Z,17.10
2022-08-28T00:09:13.166Z,17.10
2022-08-28T00:11:41.268Z,17.20
2022-08-28T00:14:11.386Z,17.20
2022-08-28T00:16:39.637Z,17.20
2022-08-28T00:19:07.716Z,17.20
2022-08-28T00:21:37.113Z,17.20
2022-08-28T00:24:06.979Z,17.20
2022-08-28T00:27:00.905Z,17.30
2022-08-28T00:29:31.236Z,17.30
2022-08-28T00:31:59.680Z,17.30
2022-08-28T00:34:33.009Z,17.30
2022-08-28T00:37:02.013Z,17.30
2022-08-28T00:39:32.189Z,17.40
2022-08-28T00:42:00.624Z,17.40
2022-08-28T00:44:29.831Z,17.40
2022-08-28T00:46:59.913Z,17.40
2022-08-28T00:49:31.221Z,17.50
2022-08-28T00:52:09.067Z,17.50
2022-08-28T00:54:56.832Z,17.50
2022-08-28T00:57:30.795Z,17.50
2022-08-28T00:59:59.008Z,17.60
2022-08-28T01:02:27.704Z,17.50
2022-08-28T01:04:56.696Z,17.60
2022-08-28T01:07:25.369Z,17.50
2022-08-28T01:09:56.668Z,17.60
2022-08-28T01:12:29.512Z,17.60
2022-08-28T01:15:09.289Z,17.60
2022-08-28T01:17:40.112Z,17.60
2022-08-28T01:20:14.888Z,17.60
2022-08-28T01:22:49.091Z,17.70
2022-08-28T01:25:21.885Z,17.70
2022-08-28T01:27:51.629Z,17.70
2022-08-28T01:30:24.161Z,17.70
2022-08-28T01:32:55.095Z,17.70
2022-08-28T01:35:27.164Z,17.70
2022-08-28T01:37:56.837Z,17.70
2022-08-28T01:40:29.366Z,17.70
2022-08-28T01:42:57.532Z,17.70
2022-08-28T01:45:26.231Z,17.70
2022-08-28T01:47:56.805Z,17.70
2022-08-28T01:50:25.149Z,17.70
2022-08-28T01:52:53.926Z,17.80
2022-08-28T01:55:22.055Z,17.80
2022-08-28T01:57:54.537Z,17.80
2022-08-28T02:00:26.875Z,17.80
2022-08-28T02:02:58.741Z,17.80
2022-08-28T02:05:30.435Z,17.80
2022-08-28T02:07:59.271Z,17.80
2022-08-28T02:10:29.204Z,17.90
2022-08-28T02:12:59.459Z,17.80
2022-08-28T02:15:29.977Z,17.80
2022-08-28T02:17:59.745Z,17.90
2022-08-28T02:20:29.036Z,17.90
2022-08-28T02:22:58.932Z,17.90
2022-08-28T02:25:28.220Z,17.90
2022-08-28T02:27:56.645Z,17.90
2022-08-28T02:30:26.240Z,17.90
2022-08-28T02:32:54.736Z,17.80
2022-08-28T02:35:24.189Z,17.90
2022-08-28T02:37:52.088Z,17.80
2022-08-28T02:40:24.744Z,17.80
2022-08-28T02:42:53.109Z,17.80
2022-08-28T02:45:21.904Z,17.90
2022-08-28T02:47:53.731Z,17.80
2022-08-28T02:50:22.304Z,17.80
2022-08-28T02:52:51.639Z,17.80
2022-08-28T02:55:21.141Z,17.80
2022-08-28T02:57:49.160Z,17.80
2022-08-28T03:00:21.363Z,17.80
2022-08-28T03:02:51.296Z,17.80
2022-08-28T03:05:22.675Z,17.80
2022-08-28T03:07:53.196Z,17.80
2022-08-28T03:10:22.613Z,17.80
2022-08-28T03:12:50.623Z,17.80
2022-08-28T03:15:19.071Z,17.80
2022-08-28T03:17:47.973Z,17.70
2022-08-28T03:20:19.407Z,17.80
2022-08-28T03:23:05.200Z,17.80
2022-08-28T03:25:33.440Z,17.80
2022-08-28T03:28:01.513Z,17.80
2022-08-28T03:30:30.110Z,17.80
2022-08-28T03:32:58.163Z,17.80
2022-08-28T03:35:27.611Z,17.80
2022-08-28T03:37:55.457Z,17.80
2022-08-28T03:40:23.652Z,17.80
2022-08-28T03:42:53.268Z,17.80
2022-08-28T03:45:21.758Z,17.80
2022-08-28T03:47:50.862Z,17.80
2022-08-28T03:50:19.684Z,17.80
2022-08-28T03:52:49.650Z,17.80
2022-08-28T03:55:19.665Z,17.80
2022-08-28T03:57:47.942Z,17.80
2022-08-28T04:00:17.044Z,17.80
2022-08-28T04:02:46.187Z,17.80
2022-08-28T04:05:14.609Z,17.80
2022-08-28T04:07:42.653Z,17.80
2022-08-28T04:10:12.975Z,17.80
2022-08-28T04:12:41.032Z,17.80
2022-08-28T04:15:10.841Z,17.80
2022-08-28T04:17:41.046Z,17.80
2022-08-28T04:20:11.191Z,17.80
2022-08-28T04:22:39.771Z,17.80
2022-08-28T04:25:08.934Z,17.80
2022-08-28T04:27:40.225Z,17.80
2022-08-28T04:30:10.159Z,17.80
2022-08-28T04:32:39.602Z,17.80
2022-08-28T04:35:12.811Z,17.80
2022-08-28T04:37:41.539Z,17.80
2022-08-28T04:40:12.945Z,17.80
2022-08-28T04:42:44.920Z,17.80
2022-08-28T04:45:13.556Z,17.70
2022-08-28T04:47:41.833Z,17.80
2022-08-28T04:50:11.892Z,17.80
2022-08-28T04:52:39.981Z,17.80
2022-08-28T04:55:09.029Z,17.80
2022-08-28T04:57:37.301Z,17.80
2022-08-28T05:00:09.453Z,17.80
2022-08-28T05:02:38.605Z,17.80
2022-08-28T05:05:07.220Z,17.80
2022-08-28T05:07:35.769Z,17.80
2022-08-28T05:10:04.027Z,17.90
2022-08-28T05:12:32.556Z,17.90
2022-08-28T05:15:00.620Z,17.90
2022-08-28T05:17:32.173Z,17.90
2022-08-28T05:20:00.332Z,17.90
2022-08-28T05:22:29.470Z,17.90
2022-08-28T05:24:57.512Z,18.00
2022-08-28T05:27:25.687Z,18.00
2022-08-28T05:29:55.489Z,18.00
2022-08-28T05:32:26.663Z,18.10
2022-08-28T05:34:56.097Z,18.10
2022-08-28T05:37:23.899Z,18.10
2022-08-28T05:39:52.103Z,18.10
2022-08-28T05:42:20.204Z,18.10
2022-08-28T05:44:48.276Z,18.20
2022-08-28T05:47:22.724Z,18.20
2022-08-28T05:49:50.834Z,18.20
2022-08-28T05:52:21.803Z,18.20
2022-08-28T05:54:49.639Z,18.30
2022-08-28T05:57:17.785Z,18.30
2022-08-28T05:59:46.396Z,18.40
2022-08-28T06:02:14.551Z,18.40
2022-08-28T06:04:42.672Z,18.40
2022-08-28T06:07:12.125Z,18.40
2022-08-28T06:09:41.318Z,18.50
2022-08-28T06:12:10.068Z,18.50
2022-08-28T06:14:40.251Z,18.50
2022-08-28T06:17:09.081Z,18.50
2022-08-28T06:19:41.307Z,18.60
2022-08-28T06:22:12.084Z,18.60
2022-08-28T06:24:41.805Z,18.60
2022-08-28T06:27:09.864Z,18.50
2022-08-28T06:29:37.979Z,18.50
2022-08-28T06:32:06.361Z,18.50
2022-08-28T06:34:34.486Z,18.50
2022-08-28T06:37:02.523Z,18.50
2022-08-28T06:39:30.676Z,18.50
2022-08-28T06:42:00.101Z,18.50
2022-08-28T06:44:32.178Z,18.50
2022-08-28T06:47:02.032Z,18.40
2022-08-28T06:49:30.056Z,18.50
2022-08-28T06:51:58.124Z,18.60
2022-08-28T06:54:26.232Z,18.60
2022-08-28T06:56:54.376Z,18.60
2022-08-28T06:59:23.876Z,18.60
2022-08-28T07:01:52.939Z,18.60
2022-08-28T07:04:21.265Z,18.60
2022-08-28T07:06:54.836Z,18.60
2022-08-28T07:09:24.232Z,18.60
2022-08-28T07:11:52.515Z,18.60
2022-08-28T07:14:20.562Z,18.60
2022-08-28T07:16:50.036Z,18.60
2022-08-28T07:19:19.813Z,18.60
2022-08-28T07:21:48.111Z,18.50
2022-08-28T07:24:17.687Z,18.60
2022-08-28T07:26:47.199Z,18.60
2022-08-28T07:29:15.387Z,18.60
2022-08-28T07:31:46.485Z,18.60
2022-08-28T07:34:17.283Z,18.70
2022-08-28T07:36:45.689Z,18.70
2022-08-28T07:39:15.537Z,18.80
2022-08-28T07:41:44.467Z,18.80
2022-08-28T07:44:32.300Z,18.80
2022-08-28T07:47:03.964Z,18.80
2022-08-28T07:49:34.613Z,18.90
2022-08-28T07:52:03.628Z,18.90
2022-08-28T07:54:31.751Z,18.90
2022-08-28T07:57:00.028Z,19.00
2022-08-28T07:59:34.182Z,19.00
2022-08-28T08:02:07.025Z,19.00
2022-08-28T08:04:36.470Z,19.00
2022-08-28T08:07:05.144Z,19.00
2022-08-28T08:09:37.361Z,19.00
2022-08-28T08:12:06.382Z,19.00
2022-08-28T08:14:34.500Z,19.10
2022-08-28T08:17:03.324Z,19.10
2022-08-28T08:19:37.115Z,19.20
2022-08-28T08:22:05.171Z,19.20
2022-08-28T08:24:33.915Z,19.30
2022-08-28T08:27:03.609Z,19.30
2022-08-28T08:29:34.075Z,19.30
2022-08-28T08:32:05.759Z,19.30
2022-08-28T08:34:38.977Z,19.40
2022-08-28T08:37:07.164Z,19.40
2022-08-28T08:39:36.219Z,19.40
2022-08-28T08:42:07.930Z,19.40
2022-08-28T08:44:40.791Z,19.50
2022-08-28T08:47:15.325Z,19.60
2022-08-28T08:49:53.683Z,19.60
2022-08-28T08:52:35.883Z,19.70
2022-08-28T08:55:15.884Z,19.70
2022-08-28T08:57:46.203Z,19.70
2022-08-28T09:00:18.859Z,19.70
2022-08-28T09:02:50.302Z,19.70
2022-08-28T09:05:23.744Z,19.80
2022-08-28T09:07:57.713Z,19.90
2022-08-28T09:10:34.768Z,20.00
2022-08-28T09:13:12.672Z,20.20
2022-08-28T09:15:48.707Z,20.30
2022-08-28T09:18:22.335Z,20.30
2022-08-28T09:20:53.495Z,20.40
2022-08-28T09:23:23.783Z,20.30
2022-08-28T09:25:59.779Z,20.30
2022-08-28T09:28:32.421Z,20.20
2022-08-28T09:31:04.832Z,20.20
2022-08-28T09:33:41.741Z,20.20
2022-08-28T09:36:31.465Z,20.20
2022-08-28T09:39:13.030Z,20.20
2022-08-28T09:42:07.285Z,20.20
2022-08-28T09:44:47.277Z,20.30
2022-08-28T09:47:46.606Z,20.30
2022-08-28T09:50:22.964Z,20.30
2022-08-28T09:52:54.409Z,20.20
2022-08-28T09:55:31.850Z,20.30
2022-08-28T09:58:00.854Z,20.30
2022-08-28T10:00:31.761Z,20.40
2022-08-28T10:03:08.447Z,20.40
2022-08-28T10:05:43.137Z,20.40
2022-08-28T10:08:31.116Z,20.40
2022-08-28T10:11:03.737Z,20.40
2022-08-28T10:13:36.807Z,20.40
2022-08-28T10:16:20.781Z,20.30
2022-08-28T10:18:56.981Z,20.40
2022-08-28T10:21:31.516Z,20.60
2022-08-28T10:24:27.073Z,20.80
2022-08-28T10:27:05.558Z,21.10
2022-08-28T10:29:45.483Z,21.30
2022-08-28T10:32:28.941Z,21.40
2022-08-28T10:35:06.365Z,21.40
2022-08-28T10:37:47.510Z,21.30
2022-08-28T10:40:19.933Z,21.30
2022-08-28T10:43:02.004Z,21.40
2022-08-28T10:45:32.999Z,21.60
2022-08-28T10:48:07.057Z,21.70
2022-08-28T10:50:43.169Z,21.90
2022-08-28T10:53:16.615Z,22.00
2022-08-28T10:55:54.806Z,22.20
2022-08-28T10:58:25.986Z,22.30
2022-08-28T11:00:58.046Z,22.40
2022-08-28T11:03:35.731Z,22.50
2022-08-28T11:06:11.247Z,22.60
2022-08-28T11:08:40.594Z,22.80
2022-08-28T11:11:13.274Z,23.10
2022-08-28T11:13:47.067Z,23.20
2022-08-28T11:16:21.686Z,23.10
2022-08-28T11:19:18.564Z,22.90
2022-08-28T11:21:50.489Z,22.70
2022-08-28T11:24:32.265Z,22.50
2022-08-28T11:27:16.777Z,22.40
2022-08-28T11:30:01.419Z,22.30
2022-08-28T11:32:41.526Z,22.10
2022-08-28T11:35:41.449Z,21.90
2022-08-28T11:38:10.176Z,21.80
2022-08-28T11:40:57.159Z,21.70
2022-08-28T11:43:40.413Z,21.80
2022-08-28T11:46:28.026Z,21.90
2022-08-28T11:48:58.394Z,21.90
2022-08-28T11:51:41.032Z,22.20
2022-08-28T11:54:21.596Z,22.40
2022-08-28T11:57:01.781Z,22.60
2022-08-28T11:59:54.015Z,22.80
2022-08-28T12:02:59.913Z,22.90
2022-08-28T12:05:45.203Z,23.00
2022-08-28T12:08:34.349Z,23.10
2022-08-28T12:11:02.697Z,23.00
2022-08-28T12:13:52.151Z,22.90
2022-08-28T12:16:22.349Z,22.80
2022-08-28T12:19:02.039Z,22.90
2022-08-28T12:21:32.856Z,22.80
2022-08-28T12:24:09.961Z,22.80
2022-08-28T12:26:48.794Z,22.80
2022-08-28T12:29:29.909Z,22.70
2022-08-28T12:32:18.652Z,22.70
2022-08-28T12:34:50.968Z,22.60
2022-08-28T12:37:51.626Z,22.50
2022-08-28T12:40:24.716Z,22.50
2022-08-28T12:42:55.799Z,22.40
2022-08-28T12:45:30.712Z,22.40
2022-08-28T12:48:03.714Z,22.40
2022-08-28T12:50:37.259Z,22.40
2022-08-28T12:53:08.669Z,22.40
2022-08-28T12:55:39.470Z,22.50
2022-08-28T12:58:13.952Z,22.60
2022-08-28T13:00:53.110Z,22.70
2022-08-28T13:03:22.447Z,22.80
2022-08-28T13:05:56.554Z,22.80
2022-08-28T13:08:24.738Z,22.70
2022-08-28T13:10:53.075Z,22.60
2022-08-28T13:13:25.205Z,22.50
2022-08-28T13:15:56.302Z,22.40
2022-08-28T13:18:45.537Z,22.30
2022-08-28T13:21:40.562Z,22.30
2022-08-28T13:24:28.837Z,22.30
2022-08-28T13:27:07.063Z,22.20
2022-08-28T13:29:35.729Z,22.20
2022-08-28T13:32:05.834Z,22.10
2022-08-28T13:34:36.907Z,22.10
2022-08-28T13:37:07.344Z,22.00
2022-08-28T13:39:46.538Z,21.90
2022-08-28T13:42:17.880Z,21.90
2022-08-28T13:44:50.429Z,21.90
2022-08-28T13:47:18.855Z,21.90
2022-08-28T13:49:48.570Z,21.90
2022-08-28T13:52:16.951Z,21.80
2022-08-28T13:54:45.303Z,21.70
2022-08-28T13:57:14.458Z,21.60
2022-08-28T13:59:42.626Z,21.60
2022-08-28T14:02:31.885Z,21.50
2022-08-28T14:05:01.775Z,21.40
2022-08-28T14:07:30.501Z,21.40
2022-08-28T14:10:00.302Z,21.20
2022-08-28T14:12:32.943Z,21.20
2022-08-28T14:15:02.544Z,21.10
2022-08-28T14:17:30.752Z,21.00
2022-08-28T14:20:00.225Z,21.00
2022-08-28T14:22:30.930Z,20.90
2022-08-28T14:25:00.495Z,20.80
2022-08-28T14:27:28.592Z,20.80
2022-08-28T14:29:56.627Z,20.70
2022-08-28T14:32:24.711Z,20.70
2022-08-28T14:34:53.340Z,20.60
2022-08-28T14:37:21.633Z,20.60
2022-08-28T14:39:51.069Z,20.60
2022-08-28T14:42:19.357Z,20.60
2022-08-28T14:44:47.456Z,20.60
2022-08-28T14:47:15.550Z,20.50
2022-08-28T14:49:43.611Z,20.50
2022-08-28T14:52:12.088Z,20.50
2022-08-28T14:54:40.432Z,20.50
2022-08-28T14:57:11.823Z,20.40
2022-08-28T14:59:39.987Z,20.40
2022-08-28T15:02:08.725Z,20.30
2022-08-28T15:04:37.969Z,20.30
2022-08-28T15:07:10.462Z,20.20
2022-08-28T15:09:41.659Z,20.20
2022-08-28T15:12:11.286Z,20.10
2022-08-28T15:14:39.445Z,20.10
2022-08-28T15:17:08.736Z,20.10
2022-08-28T15:19:36.809Z,20.00
2022-08-28T15:22:05.203Z,20.00
2022-08-28T15:24:34.488Z,19.90
2022-08-28T15:27:02.986Z,19.80
2022-08-28T15:29:32.398Z,19.80
2022-08-28T15:32:00.926Z,19.80
2022-08-28T15:34:29.869Z,19.80
2022-08-28T15:36:59.078Z,19.70
2022-08-28T15:39:46.272Z,19.80
2022-08-28T15:42:15.439Z,19.70
2022-08-28T15:44:45.104Z,19.70
2022-08-28T15:47:14.765Z,19.70
2022-08-28T15:49:50.000Z,19.60
2022-08-28T15:52:21.689Z,19.60
2022-08-28T15:54:50.716Z,19.60
2022-08-28T15:57:19.623Z,19.60
2022-08-28T15:59:50.779Z,19.50
2022-08-28T16:02:19.937Z,19.50
2022-08-28T16:04:48.523Z,19.50
2022-08-28T16:07:16.783Z,19.50
2022-08-28T16:09:44.829Z,19.40
2022-08-28T16:12:12.894Z,19.40
2022-08-28T16:14:41.339Z,19.40
2022-08-28T16:17:11.456Z,19.40
2022-08-28T16:19:41.622Z,19.40
2022-08-28T16:22:11.167Z,19.30
2022-08-28T16:24:39.596Z,19.40
2022-08-28T16:27:13.122Z,19.30
2022-08-28T16:29:43.586Z,19.30
2022-08-28T16:32:13.646Z,19.30
2022-08-28T16:34:44.599Z,19.30
2022-08-28T16:37:13.181Z,19.30
2022-08-28T16:39:46.805Z,19.30
2022-08-28T16:42:15.477Z,19.30
2022-08-28T16:44:43.504Z,19.30
2022-08-28T16:47:13.139Z,19.30
2022-08-28T16:49:41.305Z,19.30
2022-08-28T16:52:09.440Z,19.30
2022-08-28T16:54:37.617Z,19.30
2022-08-28T16:57:14.132Z,19.30
2022-08-28T16:59:42.224Z,19.30
2022-08-28T17:02:10.322Z,19.30
2022-08-28T17:04:42.900Z,19.30
2022-08-28T17:07:10.778Z,19.20
2022-08-28T17:09:38.796Z,19.20
2022-08-28T17:12:07.213Z,19.20
2022-08-28T17:14:35.481Z,19.10
2022-08-28T17:17:03.519Z,19.10
2022-08-28T17:19:31.896Z,19.10
2022-08-28T17:22:19.184Z,19.00
2022-08-28T17:24:48.182Z,18.90
2022-08-28T17:27:22.680Z,18.90
2022-08-28T17:29:51.656Z,18.90
2022-08-28T17:32:19.890Z,18.90
2022-08-28T17:34:48.070Z,18.80
2022-08-28T17:37:19.045Z,18.80
2022-08-28T17:39:47.254Z,18.80
2022-08-28T17:42:15.382Z,18.70
2022-08-28T17:44:43.544Z,18.70
2022-08-28T17:47:11.912Z,18.60
2022-08-28T17:49:40.694Z,18.60
2022-08-28T17:52:08.704Z,18.60
2022-08-28T17:54:38.124Z,18.60
2022-08-28T17:57:06.256Z,18.50
2022-08-28T17:59:35.279Z,18.50
2022-08-28T18:02:03.411Z,18.50
2022-08-28T18:04:31.522Z,18.50
2022-08-28T18:06:59.608Z,18.40
2022-08-28T18:09:28.342Z,18.40
2022-08-28T18:11:58.086Z,18.30
2022-08-28T18:14:26.331Z,18.30
2022-08-28T18:16:56.491Z,18.20
2022-08-28T18:19:24.808Z,18.20
2022-08-28T18:21:52.933Z,18.10
2022-08-28T18:24:20.990Z,18.10
2022-08-28T18:26:49.230Z,18.10
2022-08-28T18:29:18.678Z,18.00
2022-08-28T18:31:46.610Z,18.00
2022-08-28T18:34:15.007Z,18.00
2022-08-28T18:36:43.440Z,17.90
2022-08-28T18:39:11.514Z,17.90
2022-08-28T18:41:43.727Z,17.90
2022-08-28T18:44:14.307Z,17.90
2022-08-28T18:46:44.828Z,17.90
2022-08-28T18:49:13.608Z,17.90
2022-08-28T18:51:42.954Z,17.80
2022-08-28T18:54:12.205Z,17.80
2022-08-28T18:56:40.963Z,17.80
2022-08-28T18:59:09.741Z,17.80
2022-08-28T19:01:38.150Z,17.70
2022-08-28T19:04:08.059Z,17.70
2022-08-28T19:06:36.941Z,17.70
2022-08-28T19:09:06.367Z,17.70
2022-08-28T19:11:35.801Z,17.70
2022-08-28T19:14:04.233Z,17.60
2022-08-28T19:16:33.380Z,17.60
2022-08-28T19:19:01.810Z,17.50
2022-08-28T19:21:31.453Z,17.50
2022-08-28T19:23:59.320Z,17.40
2022-08-28T19:26:28.597Z,17.40
2022-08-28T19:28:57.227Z,17.30
2022-08-28T19:31:26.351Z,17.30
2022-08-28T19:33:55.358Z,17.30
2022-08-28T19:36:27.007Z,17.20
2022-08-28T19:38:56.704Z,17.10
2022-08-28T19:41:24.813Z,17.20
2022-08-28T19:43:52.909Z,17.10
2022-08-28T19:46:21.621Z,17.10
2022-08-28T19:48:50.271Z,17.10
2022-08-28T19:51:23.072Z,17.10
2022-08-28T19:53:56.708Z,17.10
2022-08-28T19:56:28.768Z,17.10
2022-08-28T19:58:59.100Z,17.00
2022-08-28T20:01:29.479Z,17.00
2022-08-28T20:03:58.363Z,17.00
2022-08-28T20:06:26.935Z,17.00
2022-08-28T20:08:55.272Z,16.90
2022-08-28T20:11:30.374Z,16.90
2022-08-28T20:14:04.102Z,16.90
2022-08-28T20:16:35.451Z,16.80
2022-08-28T20:19:04.809Z,16.80
2022-08-28T20:21:37.072Z,16.70
2022-08-28T20:24:07.247Z,16.70
2022-08-28T20:26:35.763Z,16.60
2022-08-28T20:29:06.118Z,16.60
2022-08-28T20:31:36.482Z,16.50
2022-08-28T20:34:05.867Z,16.50
2022-08-28T20:36:34.144Z,16.40
2022-08-28T20:39:07.015Z,16.40
2022-08-28T20:41:36.918Z,16.30
2022-08-28T20:44:07.688Z,16.30
2022-08-28T20:46:40.856Z,16.30
2022-08-28T20:49:09.861Z,16.30
2022-08-28T20:51:57.543Z,16.30
2022-08-28T20:54:29.977Z,16.30
2022-08-28T20:56:59.632Z,16.20
2022-08-28T20:59:34.484Z,16.20
2022-08-28T21:02:10.432Z,16.20
2022-08-28T21:04:39.095Z,16.20
2022-08-28T21:07:07.222Z,16.10
2022-08-28T21:10:04.072Z,16.20
2022-08-28T21:12:24.620Z,16.20
2022-08-28T21:14:54.443Z,16.20
2022-08-28T21:17:29.448Z,16.20
2022-08-28T21:20:00.933Z,16.30
2022-08-28T21:22:30.160Z,16.30
2022-08-28T21:24:58.257Z,16.30
2022-08-28T21:27:26.788Z,16.30
2022-08-28T21:29:58.420Z,16.30
2022-08-28T21:32:27.126Z,16.40
2022-08-28T21:34:55.394Z,16.40
2022-08-28T21:37:24.140Z,16.50
2022-08-28T21:39:52.188Z,16.50
2022-08-28T21:42:22.066Z,16.50
2022-08-28T21:44:51.820Z,16.50
2022-08-28T21:47:22.962Z,16.50
2022-08-28T21:49:52.066Z,16.50
2022-08-28T21:52:20.588Z,16.60
2022-08-28T21:54:48.646Z,16.60
2022-08-28T21:57:17.733Z,16.60
2022-08-28T21:59:45.785Z,16.60
2022-08-28T22:02:13.924Z,16.60
2022-08-28T22:04:43.395Z,16.60
2022-08-28T22:07:12.013Z,16.70
2022-08-28T22:09:40.080Z,16.60
2022-08-28T22:12:09.067Z,16.60
2022-08-28T22:14:37.663Z,16.60
2022-08-28T22:17:10.271Z,16.70
2022-08-28T22:19:40.117Z,16.70
2022-08-28T22:22:27.236Z,16.70
2022-08-28T22:24:55.303Z,16.70
2022-08-28T22:27:23.769Z,16.70
2022-08-28T22:29:51.915Z,16.70
2022-08-28T22:32:25.307Z,16.70
2022-08-28T22:34:54.033Z,16.70
2022-08-28T22:37:23.945Z,16.80
2022-08-28T22:39:52.269Z,16.70
2022-08-28T22:42:21.160Z,16.70
2022-08-28T22:44:49.193Z,16.70
2022-08-28T22:47:18.865Z,16.70
2022-08-28T22:49:47.158Z,16.80
2022-08-28T22:52:15.398Z,16.80
2022-08-28T22:54:44.837Z,16.80
2022-08-28T22:57:12.726Z,16.80
2022-08-28T22:59:42.118Z,16.80
2022-08-28T23:02:10.314Z,16.80
2022-08-28T23:04:38.687Z,16.80
2022-08-28T23:07:07.509Z,16.80
2022-08-28T23:09:36.406Z,16.80
2022-08-28T23:12:07.386Z,16.80
2022-08-28T23:14:35.619Z,16.80
2022-08-28T23:17:03.761Z,16.80
2022-08-28T23:19:32.443Z,16.70
2022-08-28T23:22:01.031Z,16.80
2022-08-28T23:24:30.048Z,16.70
2022-08-28T23:27:13.959Z,16.70
2022-08-28T23:29:53.438Z,16.70
2022-08-28T23:32:21.608Z,16.70
2022-08-28T23:34:49.765Z,16.70
2022-08-28T23:37:17.862Z,16.60
2022-08-28T23:39:46.176Z,16.60
2022-08-28T23:42:15.583Z,16.60
2022-08-28T23:44:43.609Z,16.60
2022-08-28T23:47:15.004Z,16.60
2022-08-28T23:49:43.907Z,16.60
2022-08-28T23:52:12.176Z,16.60
2022-08-28T23:54:40.351Z,16.50
2022-08-28T23:57:09.354Z,16.50
2022-08-28T23:59:39.221Z,16.40
